createdAt,value
2023-05-17T00:06:05.357Z,99721.20
2023-05-17T00:14:28.378Z,99712.14
2023-05-17T00:22:51.891Z,99719.52
2023-05-17T00:31:14.797Z,99724.89
2023-05-17T00:39:37.655Z,99729.07
2023-05-17T00:48:01.320Z,99692.89
2023-05-17T00:56:25.338Z,99695.45
2023-05-17T01:04:49.473Z,99715.24
2023-05-17T01:13:20.168Z,99720.91
2023-05-17T01:21:56.920Z,99699.67
2023-05-17T01:30:20.872Z,99689.20
2023-05-17T01:38:43.759Z,99671.16
2023-05-17T01:47:15.771Z,99660.68
2023-05-17T01:55:48.717Z,99675.16
2023-05-17T02:04:13.007Z,99701.96
2023-05-17T02:12:35.929Z,99672.15
2023-05-17T02:20:58.834Z,99675.14
2023-05-17T02:29:21.785Z,99654.80
2023-05-17T02:37:44.871Z,99644.06
2023-05-17T02:46:08.964Z,99643.96
2023-05-17T02:54:34.202Z,99652.83
2023-05-17T03:02:57.320Z,99668.16
2023-05-17T03:11:20.645Z,99680.23
2023-05-17T03:19:43.673Z,99678.57
2023-05-17T03:28:06.806Z,99680.77
2023-05-17T03:36:30.024Z,99679.63
2023-05-17T03:44:54.196Z,99671.30
2023-05-17T03:53:17.200Z,99677.30
2023-05-17T04:01:40.753Z,99677.64
2023-05-17T04:10:05.736Z,99684.55
2023-05-17T04:18:29.286Z,99690.71
2023-05-17T04:26:52.389Z,99685.02
2023-05-17T04:35:17.729Z,99672.23
2023-05-17T04:43:42.285Z,99684.21
2023-05-17T04:52:10.771Z,99690.20
2023-05-17T05:00:35.284Z,99692.66
2023-05-17T05:09:01.185Z,99698.52
2023-05-17T05:17:24.373Z,99710.63
2023-05-17T05:25:47.805Z,99714.36
2023-05-17T05:34:11.027Z,99706.41
2023-05-17T05:42:34.273Z,99703.64
2023-05-17T05:50:57.410Z,99697.32
2023-05-17T05:59:20.840Z,99704.52
2023-05-17T06:07:44.027Z,99700.13
2023-05-17T06:16:07.124Z,99698.08
2023-05-17T06:24:29.972Z,99710.64
2023-05-17T06:32:52.976Z,99727.59
2023-05-17T06:41:15.844Z,99743.71
2023-05-17T06:49:38.897Z,99761.54
2023-05-17T06:58:01.872Z,99770.54
2023-05-17T07:06:24.885Z,99768.10
2023-05-17T07:14:47.869Z,99771.30
2023-05-17T07:23:10.847Z,99776.16
2023-05-17T07:31:34.844Z,99784.85
2023-05-17T07:39:58.015Z,99795.23
2023-05-17T07:48:21.064Z,99801.73
2023-05-17T07:56:43.975Z,99804.52
2023-05-17T08:05:08.478Z,99808.64
2023-05-17T08:13:31.384Z,99809.02
2023-05-17T08:21:54.360Z,99802.70
2023-05-17T08:30:28.259Z,99812.63
2023-05-17T08:38:53.127Z,99809.80
2023-05-17T08:47:26.221Z,99815.43
2023-05-17T08:55:51.586Z,99805.52
2023-05-17T09:04:16.360Z,99812.23
2023-05-17T09:12:39.452Z,99825.26
2023-05-17T09:21:04.971Z,99828.83
2023-05-17T09:29:32.490Z,99828.44
2023-05-17T09:38:05.091Z,99826.46
2023-05-17T09:46:29.205Z,99816.81
2023-05-17T09:54:57.085Z,99817.28
2023-05-17T10:03:20.294Z,99829.17
2023-05-17T10:11:47.352Z,99854.05
2023-05-17T10:20:11.504Z,99881.77
2023-05-17T10:28:36.453Z,99886.18
2023-05-17T10:37:00.532Z,99882.71
2023-05-17T10:45:27.810Z,99898.95
2023-05-17T10:54:02.758Z,99911.52
2023-05-17T11:02:27.326Z,99919.86
2023-05-17T11:11:17.397Z,99920.70
2023-05-17T11:19:57.986Z,99913.20
2023-05-17T11:28:22.374Z,99920.02
2023-05-17T11:36:51.901Z,99924.34
2023-05-17T11:45:14.795Z,99933.87
2023-05-17T11:53:37.906Z,99949.33
2023-05-17T12:02:00.902Z,99966.98
2023-05-17T12:10:23.832Z,99981.95
2023-05-17T12:18:51.803Z,99990.51
2023-05-17T12:27:14.845Z,99986.36
2023-05-17T12:35:38.256Z,99975.71
2023-05-17T12:44:13.738Z,99962.45
2023-05-17T12:52:40.685Z,99969.42
2023-05-17T13:01:06.988Z,99982.58
2023-05-17T13:09:32.277Z,99994.56
2023-05-17T13:17:55.407Z,99989.57
2023-05-17T13:26:19.024Z,99993.55
2023-05-17T13:34:41.948Z,100000.54
2023-05-17T13:43:04.933Z,100018.05
2023-05-17T13:51:27.989Z,100021.95
2023-05-17T13:59:50.865Z,100019.22
2023-05-17T14:08:14.050Z,100011.45
2023-05-17T14:16:40.601Z,100018.55
2023-05-17T14:25:03.903Z,100040.32
2023-05-17T14:33:28.279Z,100058.04
2023-05-17T14:41:51.217Z,100070.71
2023-05-17T14:50:16.344Z,100080.94
2023-05-17T14:58:39.359Z,100088.10
2023-05-17T15:07:02.394Z,100096.28
2023-05-17T15:15:25.203Z,100098.70
2023-05-17T15:23:50.061Z,100112.45
2023-05-17T15:32:12.930Z,100126.70
2023-05-17T15:40:35.827Z,100132.01
2023-05-17T15:48:58.753Z,100132.54
2023-05-17T15:57:21.582Z,100137.86
2023-05-17T16:05:44.894Z,100146.22
2023-05-17T16:14:09.373Z,100156.84
2023-05-17T16:22:33.128Z,100161.50
2023-05-17T16:30:56.301Z,100174.35
2023-05-17T16:39:19.260Z,100178.91
2023-05-17T16:47:42.384Z,100189.02
2023-05-17T16:56:05.596Z,100206.45
2023-05-17T17:04:28.572Z,100213.63
2023-05-17T17:12:51.467Z,100228.48
2023-05-17T17:21:14.691Z,100230.29
2023-05-17T17:29:37.931Z,100239.92
2023-05-17T17:38:03.077Z,100247.77
2023-05-17T17:46:26.117Z,100261.71
2023-05-17T17:54:49.567Z,100267.42
2023-05-17T18:03:13.126Z,100272.37
2023-05-17T18:11:36.484Z,100274.73
2023-05-17T18:19:59.414Z,100289.04
2023-05-17T18:28:33.891Z,100304.33
2023-05-17T18:37:04.582Z,100316.58
2023-05-17T18:45:28.414Z,100329.36
2023-05-17T18:53:51.463Z,100347.38
2023-05-17T19:02:14.360Z,100358.73
2023-05-17T19:10:37.264Z,100364.26
2023-05-17T19:19:00.310Z,100373.55
2023-05-17T19:27:23.213Z,100360.95
2023-05-17T19:35:46.641Z,100362.92
2023-05-17T19:44:09.709Z,100369.30
2023-05-17T19:52:32.605Z,100372.48
2023-05-17T20:00:55.573Z,100370.40
2023-05-17T20:09:20.687Z,100376.55
2023-05-17T20:17:43.680Z,100374.56
2023-05-17T20:26:06.594Z,100369.49
2023-05-17T20:34:29.632Z,100375.39
2023-05-17T20:42:53.468Z,100386.55
2023-05-17T20:51:19.812Z,100392.27
2023-05-17T20:59:42.854Z,100399.59
2023-05-17T21:08:12.875Z,100409.92
2023-05-17T21:16:35.902Z,100421.73
2023-05-17T21:24:58.846Z,100423.08
2023-05-17T21:33:21.879Z,100419.36
2023-05-17T21:41:44.854Z,100425.83
2023-05-17T21:50:08.317Z,100441.25
2023-05-17T21:58:31.951Z,100449.90
2023-05-17T22:06:56.312Z,100460.83
2023-05-17T22:15:20.084Z,100464.57
2023-05-17T22:23:43.362Z,100473.93
2023-05-17T22:32:06.693Z,100480.76
2023-05-17T22:40:29.938Z,100491.23
2023-05-17T22:48:58.094Z,100497.98
2023-05-17T22:57:21.066Z,100505.61
2023-05-17T23:05:45.558Z,100515.08
2023-05-17T23:14:08.426Z,100518.92
2023-05-17T23:22:33.876Z,100527.54
2023-05-17T23:31:01.395Z,100530.83
2023-05-17T23:39:24.288Z,100537.01
2023-05-17T23:47:47.665Z,100550.84
2023-05-17T23:56:10.758Z,100565.09
